Madison, WI

8:18 PM CDT on September 25, 2016 (GMT -0500)
Sunset Village Neighborhood | | Change Station

Elev 994 ft 43.06 °N, 89.45 °W | Updated 2 seconds ago

Overcast
Overcast
64.3 °F
Feels Like 64.3 °F
N
3.0
Wind Variable Wind from WSW
Gusts 11.0 mph

Today
High -- | Low -- °F
--% Chance of Precip.
Yesterday
High -- | Low -- °F
Precip. -- in
Pressure 29.95 in
Visibility 10.0 miles
Clouds Scattered Clouds 7500 ft
Overcast 11000 ft
Dew Point 57 °F
Humidity 77%
Rainfall 0.11 in
Snow Depth Not available.
6:48 AM 6:48 PM
Waning Crescent, 23% visible
METAR KC29 260055Z AUTO 28012G19KT 10SM SCT075 OVC110 19/13 A2995 RMK AO1 T01900129
Pressure 29.95 in
Visibility 10.0 miles
Clouds Scattered Clouds 7500 ft
Overcast 11000 ft
Dew Point 57 °F
Humidity 77%
Rainfall 0.11 in
Snow Depth Not available.
6:48 AM 6:48 PM
Waning Crescent, 23% visible
METAR KC29 260055Z AUTO 28012G19KT 10SM SCT075 OVC110 19/13 A2995 RMK AO1 T01900129

10-Day Weather Forecast

Almanac

Astronomy

Sep. 25, 2016 Rise Set
Actual Time
Civil Twilight
Nautical Twilight
Astronomical Twilight
Moon
Length of Visible Light
Length of Day
Tomorrow will be .
, % of the Moon is Illuminated

Today's Extremes

State Highs State Lows

Community

WunderPhotos

Upload Photos

1,941,797 photos uploaded!

WunderBlog® & News

Nearby

Air Quality

  Air Quality AQ Index Pollutant
Not available.

Snow Depth

Station Depth Elevation

Earthquake Activity

City Distance Mag. Time & Date
Minimum magnitude displayed is 2.5.

Coastal Water Temperatures

Place Temperature

Stations

Nearby Weather Stations

Station Location Temp. Windchill Dew Point Humidity Wind Precip. Elev Updated Type
                   

Watches & Warnings

There are currently no watches in effect.